sensor_id;sensor_type;location;lat;lon;timestamp;pressure;altitude;pressure_sealevel;temperature;humidity
13974;BME280;7060;43.770;4.008;2023-05-20T00:00:02;100905.56;;;15.22;74.33
13974;BME280;7060;43.770;4.008;2023-05-20T00:02:32;100900.16;;;15.22;74.41
13974;BME280;7060;43.770;4.008;2023-05-20T00:05:01;100906.56;;;15.21;74.42
13974;BME280;7060;43.770;4.008;2023-05-20T00:07:30;100899.00;;;15.16;74.10
13974;BME280;7060;43.770;4.008;2023-05-20T00:09:59;100900.69;;;15.17;74.12
13974;BME280;7060;43.770;4.008;2023-05-20T00:12:27;100901.00;;;15.14;74.06
13974;BME280;7060;43.770;4.008;2023-05-20T00:14:56;100900.03;;;15.07;74.31
13974;BME280;7060;43.770;4.008;2023-05-20T00:17:24;100893.16;;;15.05;74.42
13974;BME280;7060;43.770;4.008;2023-05-20T00:19:56;100894.50;;;15.09;74.30
13974;BME280;7060;43.770;4.008;2023-05-20T00:22:26;100890.13;;;15.08;74.44
13974;BME280;7060;43.770;4.008;2023-05-20T00:24:54;100890.63;;;15.11;74.05
13974;BME280;7060;43.770;4.008;2023-05-20T00:27:22;100884.91;;;15.06;74.37
13974;BME280;7060;43.770;4.008;2023-05-20T00:29:51;100877.84;;;14.97;74.56
13974;BME280;7060;43.770;4.008;2023-05-20T00:32:19;100882.22;;;14.98;74.85
13974;BME280;7060;43.770;4.008;2023-05-20T00:34:56;100874.63;;;14.94;74.55
13974;BME280;7060;43.770;4.008;2023-05-20T00:37:24;100854.66;;;14.80;75.28
13974;BME280;7060;43.770;4.008;2023-05-20T00:39:53;100873.31;;;14.89;75.19
13974;BME280;7060;43.770;4.008;2023-05-20T00:42:24;100829.09;;;14.60;75.36
13974;BME280;7060;43.770;4.008;2023-05-20T00:44:53;100871.78;;;14.87;75.41
13974;BME280;7060;43.770;4.008;2023-05-20T00:47:25;100870.94;;;14.86;75.01
13974;BME280;7060;43.770;4.008;2023-05-20T00:49:56;100867.06;;;14.89;74.85
13974;BME280;7060;43.770;4.008;2023-05-20T00:52:25;100867.06;;;14.89;74.67
13974;BME280;7060;43.770;4.008;2023-05-20T00:54:54;100865.56;;;14.86;75.21
13974;BME280;7060;43.770;4.008;2023-05-20T00:57:24;100841.38;;;14.70;74.86
13974;BME280;7060;43.770;4.008;2023-05-20T00:59:53;100803.53;;;14.47;74.74
13974;BME280;7060;43.770;4.008;2023-05-20T01:02:23;100857.84;;;14.83;75.21
13974;BME280;7060;43.770;4.008;2023-05-20T01:04:52;100858.69;;;14.84;75.54
13974;BME280;7060;43.770;4.008;2023-05-20T01:07:24;100862.53;;;14.89;75.35
13974;BME280;7060;43.770;4.008;2023-05-20T01:09:53;100853.78;;;14.87;75.35
13974;BME280;7060;43.770;4.008;2023-05-20T01:12:25;100847.09;;;14.83;75.54
13974;BME280;7060;43.770;4.008;2023-05-20T01:14:58;100848.28;;;14.81;75.74
13974;BME280;7060;43.770;4.008;2023-05-20T01:17:30;100827.91;;;14.78;75.84
13974;BME280;7060;43.770;4.008;2023-05-20T01:20:05;100828.25;;;14.75;76.15
13974;BME280;7060;43.770;4.008;2023-05-20T01:22:38;100777.13;;;14.51;75.97
13974;BME280;7060;43.770;4.008;2023-05-20T01:25:08;100819.66;;;14.80;75.99
13974;BME280;7060;43.770;4.008;2023-05-20T01:27:36;100823.88;;;14.82;75.93
13974;BME280;7060;43.770;4.008;2023-05-20T01:30:07;100818.50;;;14.82;76.19
13974;BME280;7060;43.770;4.008;2023-05-20T01:32:37;100811.09;;;14.84;76.21
13974;BME280;7060;43.770;4.008;2023-05-20T01:35:08;100802.50;;;14.81;75.87
13974;BME280;7060;43.770;4.008;2023-05-20T01:37:39;100807.91;;;14.81;75.98
13974;BME280;7060;43.770;4.008;2023-05-20T01:40:11;100777.97;;;14.68;76.18
13974;BME280;7060;43.770;4.008;2023-05-20T01:42:42;100797.97;;;14.73;76.33
13974;BME280;7060;43.770;4.008;2023-05-20T01:45:12;100796.97;;;14.74;76.47
13974;BME280;7060;43.770;4.008;2023-05-20T01:47:44;100792.25;;;14.76;76.22
13974;BME280;7060;43.770;4.008;2023-05-20T01:50:12;100799.31;;;14.77;76.03
13974;BME280;7060;43.770;4.008;2023-05-20T01:52:42;100801.50;;;14.74;76.11
13974;BME280;7060;43.770;4.008;2023-05-20T01:55:13;100798.16;;;14.72;76.21
13974;BME280;7060;43.770;4.008;2023-05-20T01:57:42;100789.41;;;14.70;76.37
13974;BME280;7060;43.770;4.008;2023-05-20T02:00:11;100783.50;;;14.66;76.54
13974;BME280;7060;43.770;4.008;2023-05-20T02:02:40;100780.16;;;14.64;76.66
13974;BME280;7060;43.770;4.008;2023-05-20T02:05:11;100779.31;;;14.64;76.77
13974;BME280;7060;43.770;4.008;2023-05-20T02:07:43;100772.91;;;14.65;76.51
13974;BME280;7060;43.770;4.008;2023-05-20T02:10:12;100771.41;;;14.62;76.18
13974;BME280;7060;43.770;4.008;2023-05-20T02:12:40;100768.88;;;14.61;76.19
13974;BME280;7060;43.770;4.008;2023-05-20T02:15:09;100763.19;;;14.55;76.16
13974;BME280;7060;43.770;4.008;2023-05-20T02:17:38;100759.97;;;14.52;76.51
13974;BME280;7060;43.770;4.008;2023-05-20T02:20:10;100760.31;;;14.49;76.58
13974;BME280;7060;43.770;4.008;2023-05-20T02:22:40;100750.56;;;14.48;76.64
13974;BME280;7060;43.770;4.008;2023-05-20T02:25:11;100762.16;;;14.48;76.79
13974;BME280;7060;43.770;4.008;2023-05-20T02:27:40;100756.13;;;14.46;76.66
13974;BME280;7060;43.770;4.008;2023-05-20T02:30:09;100752.75;;;14.44;76.99
13974;BME280;7060;43.770;4.008;2023-05-20T02:32:37;100741.81;;;14.46;76.94
13974;BME280;7060;43.770;4.008;2023-05-20T02:35:06;100739.63;;;14.49;77.06
13974;BME280;7060;43.770;4.008;2023-05-20T02:37:35;100731.56;;;14.49;77.05
13974;BME280;7060;43.770;4.008;2023-05-20T02:40:06;100735.28;;;14.56;76.90
13974;BME280;7060;43.770;4.008;2023-05-20T02:42:39;100728.91;;;14.57;76.80
13974;BME280;7060;43.770;4.008;2023-05-20T02:45:08;100721.66;;;14.50;76.55
13974;BME280;7060;43.770;4.008;2023-05-20T02:47:38;100731.41;;;14.51;76.25
13974;BME280;7060;43.770;4.008;2023-05-20T02:50:07;100739.13;;;14.46;76.49
13974;BME280;7060;43.770;4.008;2023-05-20T02:52:36;100734.25;;;14.41;76.49
13974;BME280;7060;43.770;4.008;2023-05-20T02:55:06;100728.72;;;14.35;76.69
13974;BME280;7060;43.770;4.008;2023-05-20T02:57:35;100731.06;;;14.38;76.46
13974;BME280;7060;43.770;4.008;2023-05-20T03:00:09;100727.19;;;14.40;76.40
13974;BME280;7060;43.770;4.008;2023-05-20T03:02:39;100715.59;;;14.40;76.36
13974;BME280;7060;43.770;4.008;2023-05-20T03:05:08;100708.38;;;14.32;76.63
13974;BME280;7060;43.770;4.008;2023-05-20T03:07:38;100711.06;;;14.32;76.36
13974;BME280;7060;43.770;4.008;2023-05-20T03:10:08;100712.94;;;14.32;76.28
13974;BME280;7060;43.770;4.008;2023-05-20T03:12:38;100703.72;;;14.26;76.27
13974;BME280;7060;43.770;4.008;2023-05-20T03:15:10;100705.91;;;14.22;76.45
13974;BME280;7060;43.770;4.008;2023-05-20T03:17:39;100705.91;;;14.22;76.76
13974;BME280;7060;43.770;4.008;2023-05-20T03:20:08;100703.53;;;14.19;76.53
13974;BME280;7060;43.770;4.008;2023-05-20T03:22:40;100704.56;;;14.18;76.82
13974;BME280;7060;43.770;4.008;2023-05-20T03:25:08;100701.03;;;14.18;76.52
13974;BME280;7060;43.770;4.008;2023-05-20T03:27:37;100697.50;;;14.17;76.09
13974;BME280;7060;43.770;4.008;2023-05-20T03:30:06;100699.69;;;14.14;75.90
13974;BME280;7060;43.770;4.008;2023-05-20T03:32:37;100693.81;;;14.10;76.21
13974;BME280;7060;43.770;4.008;2023-05-20T03:35:06;100664.75;;;13.89;75.72
13974;BME280;7060;43.770;4.008;2023-05-20T03:37:36;100701.91;;;14.02;75.32
13974;BME280;7060;43.770;4.008;2023-05-20T03:40:07;100703.56;;;13.95;75.75
13974;BME280;7060;43.770;4.008;2023-05-20T03:42:37;100701.72;;;13.96;75.78
13974;BME280;7060;43.770;4.008;2023-05-20T03:45:07;100702.38;;;13.89;75.63
13974;BME280;7060;43.770;4.008;2023-05-20T03:47:45;100698.19;;;13.87;75.51
13974;BME280;7060;43.770;4.008;2023-05-20T03:50:16;100698.19;;;13.87;75.20
13974;BME280;7060;43.770;4.008;2023-05-20T03:52:45;100677.53;;;13.71;75.35
13974;BME280;7060;43.770;4.008;2023-05-20T03:55:15;100696.50;;;13.78;75.55
13974;BME280;7060;43.770;4.008;2023-05-20T03:57:46;100696.84;;;13.75;75.43
13974;BME280;7060;43.770;4.008;2023-05-20T04:00:16;100703.41;;;13.72;75.76
13974;BME280;7060;43.770;4.008;2023-05-20T04:02:46;100704.06;;;13.74;75.91
13974;BME280;7060;43.770;4.008;2023-05-20T04:05:17;100704.91;;;13.75;75.71
13974;BME280;7060;43.770;4.008;2023-05-20T04:07:47;100701.38;;;13.74;76.23
13974;BME280;7060;43.770;4.008;2023-05-20T04:10:18;100706.75;;;13.74;75.66
13974;BME280;7060;43.770;4.008;2023-05-20T04:12:47;100710.44;;;13.73;75.62
13974;BME280;7060;43.770;4.008;2023-05-20T04:15:16;100702.72;;;13.70;76.13
13974;BME280;7060;43.770;4.008;2023-05-20T04:17:54;100704.56;;;13.70;75.91
13974;BME280;7060;43.770;4.008;2023-05-20T04:20:23;100696.50;;;13.70;76.26
13974;BME280;7060;43.770;4.008;2023-05-20T04:22:54;100703.56;;;13.71;76.07
13974;BME280;7060;43.770;4.008;2023-05-20T04:25:23;100705.56;;;13.69;76.22
13974;BME280;7060;43.770;4.008;2023-05-20T04:27:54;100702.22;;;13.67;76.04
13974;BME280;7060;43.770;4.008;2023-05-20T04:30:23;100710.44;;;13.65;75.77
13974;BME280;7060;43.770;4.008;2023-05-20T04:32:54;100706.75;;;13.66;76.21
13974;BME280;7060;43.770;4.008;2023-05-20T04:35:23;100693.47;;;13.56;75.52
13974;BME280;7060;43.770;4.008;2023-05-20T04:37:55;100703.53;;;13.63;75.39
13974;BME280;7060;43.770;4.008;2023-05-20T04:40:23;100705.41;;;13.62;75.63
13974;BME280;7060;43.770;4.008;2023-05-20T04:42:53;100712.94;;;13.59;75.77
13974;BME280;7060;43.770;4.008;2023-05-20T04:45:24;100719.66;;;13.54;75.65
13974;BME280;7060;43.770;4.008;2023-05-20T04:47:54;100716.28;;;13.52;75.97
13974;BME280;7060;43.770;4.008;2023-05-20T04:50:24;100716.44;;;13.51;76.22
13974;BME280;7060;43.770;4.008;2023-05-20T04:52:53;100716.63;;;13.49;75.90
13974;BME280;7060;43.770;4.008;2023-05-20T04:55:21;100708.75;;;13.48;76.00
13974;BME280;7060;43.770;4.008;2023-05-20T04:57:51;100717.44;;;13.50;76.08
13974;BME280;7060;43.770;4.008;2023-05-20T05:00:19;100712.06;;;13.50;76.73
13974;BME280;7060;43.770;4.008;2023-05-20T05:02:48;100722.50;;;13.53;76.59
13974;BME280;7060;43.770;4.008;2023-05-20T05:05:19;100713.28;;;13.47;76.33
13974;BME280;7060;43.770;4.008;2023-05-20T05:07:48;100720.47;;;13.55;76.94
13974;BME280;7060;43.770;4.008;2023-05-20T05:10:17;100718.66;;;13.64;76.95
13974;BME280;7060;43.770;4.008;2023-05-20T05:12:45;100723.03;;;13.73;77.15
13974;BME280;7060;43.770;4.008;2023-05-20T05:15:15;100717.66;;;13.81;77.17
13974;BME280;7060;43.770;4.008;2023-05-20T05:17:44;100714.97;;;13.89;76.95
13974;BME280;7060;43.770;4.008;2023-05-20T05:20:13;100714.31;;;13.95;77.00
13974;BME280;7060;43.770;4.008;2023-05-20T05:22:43;100717.66;;;14.05;76.89
13974;BME280;7060;43.770;4.008;2023-05-20T05:25:12;100721.34;;;14.12;76.87
13974;BME280;7060;43.770;4.008;2023-05-20T05:27:41;100725.72;;;14.21;76.88
13974;BME280;7060;43.770;4.008;2023-05-20T05:30:10;100733.13;;;14.28;76.74
13974;BME280;7060;43.770;4.008;2023-05-20T05:32:39;100725.19;;;14.34;76.87
13974;BME280;7060;43.770;4.008;2023-05-20T05:35:08;100718.13;;;14.41;76.74
13974;BME280;7060;43.770;4.008;2023-05-20T05:37:37;100719.97;;;14.49;76.79
13974;BME280;7060;43.770;4.008;2023-05-20T05:40:08;100713.06;;;14.54;76.62
13974;BME280;7060;43.770;4.008;2023-05-20T05:42:36;100713.59;;;14.58;77.18
13974;BME280;7060;43.770;4.008;2023-05-20T05:45:07;100715.72;;;14.71;77.15
13974;BME280;7060;43.770;4.008;2023-05-20T05:47:36;100705.78;;;14.79;76.86
13974;BME280;7060;43.770;4.008;2023-05-20T05:50:05;100710.59;;;14.92;76.34
13974;BME280;7060;43.770;4.008;2023-05-20T05:52:34;100707.03;;;15.00;76.27
13974;BME280;7060;43.770;4.008;2023-05-20T05:55:08;100669.78;;;14.80;76.30
13974;BME280;7060;43.770;4.008;2023-05-20T05:57:37;100667.75;;;14.82;76.26
13974;BME280;7060;43.770;4.008;2023-05-20T06:00:08;100698.69;;;15.17;76.23
13974;BME280;7060;43.770;4.008;2023-05-20T06:02:46;100705.91;;;15.25;76.20
13974;BME280;7060;43.770;4.008;2023-05-20T06:05:29;100690.38;;;15.35;76.75
13974;BME280;7060;43.770;4.008;2023-05-20T06:08:00;100699.31;;;15.81;77.18
13974;BME280;7060;43.770;4.008;2023-05-20T06:10:31;100675.91;;;16.19;76.34
13974;BME280;7060;43.770;4.008;2023-05-20T06:13:00;100689.91;;;16.82;74.99
13974;BME280;7060;43.770;4.008;2023-05-20T06:15:28;100692.91;;;17.23;73.13
13974;BME280;7060;43.770;4.008;2023-05-20T06:17:56;100682.38;;;17.64;71.20
13974;BME280;7060;43.770;4.008;2023-05-20T06:20:26;100691.28;;;18.07;69.81
13974;BME280;7060;43.770;4.008;2023-05-20T06:22:54;100692.59;;;18.39;68.71
13974;BME280;7060;43.770;4.008;2023-05-20T06:25:27;100684.28;;;18.75;67.87
13974;BME280;7060;43.770;4.008;2023-05-20T06:27:57;100689.25;;;19.13;66.11
13974;BME280;7060;43.770;4.008;2023-05-20T06:30:26;100686.88;;;19.44;64.01
13974;BME280;7060;43.770;4.008;2023-05-20T06:32:54;100683.81;;;19.74;61.99
13974;BME280;7060;43.770;4.008;2023-05-20T06:35:23;100683.59;;;19.95;61.64
13974;BME280;7060;43.770;4.008;2023-05-20T06:37:51;100679.88;;;20.22;61.36
13974;BME280;7060;43.770;4.008;2023-05-20T06:40:21;100682.97;;;20.59;60.10
13974;BME280;7060;43.770;4.008;2023-05-20T06:42:49;100684.97;;;20.83;58.64
13974;BME280;7060;43.770;4.008;2023-05-20T06:45:28;100677.72;;;21.22;57.50
13974;BME280;7060;43.770;4.008;2023-05-20T06:48:15;100678.75;;;21.59;55.61
13974;BME280;7060;43.770;4.008;2023-05-20T06:50:44;100677.22;;;22.01;55.00
13974;BME280;7060;43.770;4.008;2023-05-20T06:53:12;100673.09;;;22.42;54.54
13974;BME280;7060;43.770;4.008;2023-05-20T06:55:41;100672.00;;;22.68;52.70
13974;BME280;7060;43.770;4.008;2023-05-20T06:58:09;100674.09;;;23.02;50.53
13974;BME280;7060;43.770;4.008;2023-05-20T07:00:41;100671.06;;;23.28;48.42
13974;BME280;7060;43.770;4.008;2023-05-20T07:03:09;100675.00;;;23.33;48.58
13974;BME280;7060;43.770;4.008;2023-05-20T07:05:38;100667.66;;;23.33;47.75
13974;BME280;7060;43.770;4.008;2023-05-20T07:08:08;100676.03;;;23.13;49.13
13974;BME280;7060;43.770;4.008;2023-05-20T07:10:37;100677.97;;;22.94;49.27
13974;BME280;7060;43.770;4.008;2023-05-20T07:13:07;100679.84;;;22.57;50.18
13974;BME280;7060;43.770;4.008;2023-05-20T07:15:35;100682.19;;;22.54;50.20
13974;BME280;7060;43.770;4.008;2023-05-20T07:18:05;100681.22;;;22.67;50.43
13974;BME280;7060;43.770;4.008;2023-05-20T07:20:35;100685.91;;;22.59;50.03
13974;BME280;7060;43.770;4.008;2023-05-20T07:23:08;100687.06;;;22.70;51.19
13974;BME280;7060;43.770;4.008;2023-05-20T07:25:43;100682.59;;;22.76;50.65
13974;BME280;7060;43.770;4.008;2023-05-20T07:28:11;100684.03;;;22.78;48.58
13974;BME280;7060;43.770;4.008;2023-05-20T07:30:40;100683.41;;;22.58;49.15
13974;BME280;7060;43.770;4.008;2023-05-20T07:33:19;100688.19;;;22.38;48.50
13974;BME280;7060;43.770;4.008;2023-05-20T07:35:49;100684.63;;;22.19;49.78
13974;BME280;7060;43.770;4.008;2023-05-20T07:38:21;100689.00;;;21.95;48.80
13974;BME280;7060;43.770;4.008;2023-05-20T07:40:56;100683.25;;;21.78;50.83
13974;BME280;7060;43.770;4.008;2023-05-20T07:43:24;100688.75;;;21.34;48.78
13974;BME280;7060;43.770;4.008;2023-05-20T07:45:52;100675.50;;;21.06;49.89
13974;BME280;7060;43.770;4.008;2023-05-20T07:48:23;100676.41;;;20.73;51.31
13974;BME280;7060;43.770;4.008;2023-05-20T07:50:51;100682.50;;;20.62;53.06
13974;BME280;7060;43.770;4.008;2023-05-20T07:53:21;100688.19;;;20.47;54.71
13974;BME280;7060;43.770;4.008;2023-05-20T07:55:49;100684.66;;;20.34;54.54
13974;BME280;7060;43.770;4.008;2023-05-20T07:58:18;100679.25;;;20.20;55.74
13974;BME280;7060;43.770;4.008;2023-05-20T08:00:46;100683.81;;;20.13;55.63
13974;BME280;7060;43.770;4.008;2023-05-20T08:03:15;100685.69;;;20.06;56.23
13974;BME280;7060;43.770;4.008;2023-05-20T08:05:54;100689.66;;;20.04;57.04
13974;BME280;7060;43.770;4.008;2023-05-20T08:08:23;100683.78;;;20.07;57.03
13974;BME280;7060;43.770;4.008;2023-05-20T08:10:57;100685.88;;;20.11;56.90
13974;BME280;7060;43.770;4.008;2023-05-20T08:13:29;100691.56;;;20.03;54.57
13974;BME280;7060;43.770;4.008;2023-05-20T08:15:59;100694.44;;;19.88;54.19
13974;BME280;7060;43.770;4.008;2023-05-20T08:18:30;100697.38;;;19.93;51.91
13974;BME280;7060;43.770;4.008;2023-05-20T08:21:00;100694.25;;;20.03;52.85
13974;BME280;7060;43.770;4.008;2023-05-20T08:23:28;100691.34;;;20.24;51.20
13974;BME280;7060;43.770;4.008;2023-05-20T08:26:02;100690.91;;;20.54;51.21
13974;BME280;7060;43.770;4.008;2023-05-20T08:28:32;100683.50;;;20.87;51.30
13974;BME280;7060;43.770;4.008;2023-05-20T08:31:03;100674.44;;;21.00;52.31
13974;BME280;7060;43.770;4.008;2023-05-20T08:33:32;100684.41;;;21.19;51.13
13974;BME280;7060;43.770;4.008;2023-05-20T08:36:02;100683.31;;;21.34;50.77
13974;BME280;7060;43.770;4.008;2023-05-20T08:38:31;100679.06;;;21.44;50.20
13974;BME280;7060;43.770;4.008;2023-05-20T08:40:59;100674.06;;;21.41;50.10
13974;BME280;7060;43.770;4.008;2023-05-20T08:43:30;100673.25;;;21.41;49.15
13974;BME280;7060;43.770;4.008;2023-05-20T08:46:00;100665.72;;;21.36;47.64
13974;BME280;7060;43.770;4.008;2023-05-20T08:48:34;100676.84;;;21.28;48.17
13974;BME280;7060;43.770;4.008;2023-05-20T08:51:07;100673.38;;;21.14;47.43
13974;BME280;7060;43.770;4.008;2023-05-20T08:53:36;100662.56;;;21.01;48.08
13974;BME280;7060;43.770;4.008;2023-05-20T08:56:05;100657.53;;;21.05;47.12
13974;BME280;7060;43.770;4.008;2023-05-20T08:58:35;100666.22;;;21.20;48.74
13974;BME280;7060;43.770;4.008;2023-05-20T09:01:04;100657.00;;;21.21;47.23
13974;BME280;7060;43.770;4.008;2023-05-20T09:03:34;100660.16;;;21.18;46.76
13974;BME280;7060;43.770;4.008;2023-05-20T09:06:05;100662.31;;;21.09;47.94
13974;BME280;7060;43.770;4.008;2023-05-20T09:08:35;100656.91;;;21.03;47.94
13974;BME280;7060;43.770;4.008;2023-05-20T09:11:03;100663.41;;;20.88;48.36
13974;BME280;7060;43.770;4.008;2023-05-20T09:13:32;100665.97;;;20.70;47.31
13974;BME280;7060;43.770;4.008;2023-05-20T09:16:01;100665.41;;;20.55;46.66
13974;BME280;7060;43.770;4.008;2023-05-20T09:18:32;100671.91;;;20.47;46.91
13974;BME280;7060;43.770;4.008;2023-05-20T09:21:05;100641.66;;;20.31;47.00
13974;BME280;7060;43.770;4.008;2023-05-20T09:23:35;100661.66;;;20.49;47.11
13974;BME280;7060;43.770;4.008;2023-05-20T09:26:04;100658.09;;;20.49;46.89
13974;BME280;7060;43.770;4.008;2023-05-20T09:28:33;100649.53;;;20.58;46.81
13974;BME280;7060;43.770;4.008;2023-05-20T09:31:04;100653.03;;;20.72;47.05
13974;BME280;7060;43.770;4.008;2023-05-20T09:33:36;100652.78;;;20.87;46.96
13974;BME280;7060;43.770;4.008;2023-05-20T09:36:07;100645.81;;;21.04;46.71
13974;BME280;7060;43.770;4.008;2023-05-20T09:38:37;100652.41;;;21.21;49.42
13974;BME280;7060;43.770;4.008;2023-05-20T09:41:07;100651.50;;;21.34;47.40
13974;BME280;7060;43.770;4.008;2023-05-20T09:43:36;100645.34;;;21.45;46.54
13974;BME280;7060;43.770;4.008;2023-05-20T09:46:06;100647.59;;;21.55;47.58
13974;BME280;7060;43.770;4.008;2023-05-20T09:48:35;100652.78;;;21.63;46.57
13974;BME280;7060;43.770;4.008;2023-05-20T09:51:06;100648.63;;;21.60;43.41
13974;BME280;7060;43.770;4.008;2023-05-20T09:53:34;100643.84;;;21.56;44.91
13974;BME280;7060;43.770;4.008;2023-05-20T09:56:03;100641.47;;;21.66;46.14
13974;BME280;7060;43.770;4.008;2023-05-20T09:58:34;100648.50;;;21.74;45.90
13974;BME280;7060;43.770;4.008;2023-05-20T10:01:04;100625.47;;;21.76;44.96
13974;BME280;7060;43.770;4.008;2023-05-20T10:03:33;100643.22;;;21.85;44.48
13974;BME280;7060;43.770;4.008;2023-05-20T10:06:25;100639.91;;;21.83;43.37
13974;BME280;7060;43.770;4.008;2023-05-20T10:09:13;100636.34;;;21.83;44.02
13974;BME280;7060;43.770;4.008;2023-05-20T10:11:50;100616.69;;;21.74;46.42
13974;BME280;7060;43.770;4.008;2023-05-20T10:14:34;100637.91;;;21.97;45.04
13974;BME280;7060;43.770;4.008;2023-05-20T10:17:12;100632.16;;;22.05;43.82
13974;BME280;7060;43.770;4.008;2023-05-20T10:19:44;100633.03;;;22.24;43.12
13974;BME280;7060;43.770;4.008;2023-05-20T10:22:14;100633.34;;;22.34;42.41
13974;BME280;7060;43.770;4.008;2023-05-20T10:24:57;100642.19;;;22.29;43.80
13974;BME280;7060;43.770;4.008;2023-05-20T10:27:26;100533.78;;;21.77;43.60
13974;BME280;7060;43.770;4.008;2023-05-20T10:29:55;100621.81;;;22.57;43.49
13974;BME280;7060;43.770;4.008;2023-05-20T10:32:25;100623.41;;;22.65;42.29
13974;BME280;7060;43.770;4.008;2023-05-20T10:34:58;100625.59;;;22.56;42.46
13974;BME280;7060;43.770;4.008;2023-05-20T10:37:31;100611.41;;;22.47;42.27
13974;BME280;7060;43.770;4.008;2023-05-20T10:40:07;100615.31;;;22.76;44.11
13974;BME280;7060;43.770;4.008;2023-05-20T10:42:38;100608.97;;;22.94;42.26
13974;BME280;7060;43.770;4.008;2023-05-20T10:45:08;100612.84;;;23.05;44.09
13974;BME280;7060;43.770;4.008;2023-05-20T10:47:41;100601.63;;;22.94;43.72
13974;BME280;7060;43.770;4.008;2023-05-20T10:50:25;100603.56;;;22.76;44.44
13974;BME280;7060;43.770;4.008;2023-05-20T10:53:01;100605.16;;;22.65;45.80
13974;BME280;7060;43.770;4.008;2023-05-20T10:55:35;100567.44;;;22.25;44.38
13974;BME280;7060;43.770;4.008;2023-05-20T10:58:05;100608.16;;;22.39;45.08
13974;BME280;7060;43.770;4.008;2023-05-20T11:00:34;100608.59;;;22.36;44.40
13974;BME280;7060;43.770;4.008;2023-05-20T11:03:04;100603.66;;;22.26;44.93
13974;BME280;7060;43.770;4.008;2023-05-20T11:05:33;100602.84;;;22.25;46.33
13974;BME280;7060;43.770;4.008;2023-05-20T11:08:05;100609.38;;;22.24;44.67
13974;BME280;7060;43.770;4.008;2023-05-20T11:10:55;100608.00;;;22.15;44.38
13974;BME280;7060;43.770;4.008;2023-05-20T11:13:24;100599.66;;;22.10;43.81
13974;BME280;7060;43.770;4.008;2023-05-20T11:15:55;100600.25;;;22.12;44.97
13974;BME280;7060;43.770;4.008;2023-05-20T11:18:26;100568.78;;;21.98;45.89
13974;BME280;7060;43.770;4.008;2023-05-20T11:20:57;100601.88;;;22.20;44.07
13974;BME280;7060;43.770;4.008;2023-05-20T11:23:27;100599.16;;;22.20;44.96
13974;BME280;7060;43.770;4.008;2023-05-20T11:25:56;100589.53;;;22.17;45.28
13974;BME280;7060;43.770;4.008;2023-05-20T11:28:25;100595.22;;;22.16;44.89
13974;BME280;7060;43.770;4.008;2023-05-20T11:30:54;100595.25;;;22.09;45.42
13974;BME280;7060;43.770;4.008;2023-05-20T11:33:24;100595.88;;;22.11;47.26
13974;BME280;7060;43.770;4.008;2023-05-20T11:35:54;100601.78;;;22.08;47.73
13974;BME280;7060;43.770;4.008;2023-05-20T11:38:22;100600.53;;;22.04;47.60
13974;BME280;7060;43.770;4.008;2023-05-20T11:40:53;100567.28;;;21.77;46.64
13974;BME280;7060;43.770;4.008;2023-05-20T11:43:23;100604.03;;;21.93;47.21
13974;BME280;7060;43.770;4.008;2023-05-20T11:45:53;100596.97;;;21.85;45.77
13974;BME280;7060;43.770;4.008;2023-05-20T11:48:22;100608.31;;;21.76;45.77
13974;BME280;7060;43.770;4.008;2023-05-20T11:50:52;100608.59;;;21.68;47.41
13974;BME280;7060;43.770;4.008;2023-05-20T11:53:23;100607.16;;;21.65;48.45
13974;BME280;7060;43.770;4.008;2023-05-20T11:55:54;100611.16;;;21.62;48.07
13974;BME280;7060;43.770;4.008;2023-05-20T11:58:24;100619.13;;;21.57;48.64
13974;BME280;7060;43.770;4.008;2023-05-20T12:00:53;100617.28;;;21.51;48.37
13974;BME280;7060;43.770;4.008;2023-05-20T12:03:39;100611.06;;;21.44;47.47
13974;BME280;7060;43.770;4.008;2023-05-20T12:06:10;100609.69;;;21.35;47.51
13974;BME280;7060;43.770;4.008;2023-05-20T12:08:39;100617.47;;;21.25;48.40
13974;BME280;7060;43.770;4.008;2023-05-20T12:11:09;100614.78;;;21.18;49.67
13974;BME280;7060;43.770;4.008;2023-05-20T12:13:38;100610.66;;;21.09;51.34
13974;BME280;7060;43.770;4.008;2023-05-20T12:16:06;100615.53;;;21.01;52.64
13974;BME280;7060;43.770;4.008;2023-05-20T12:18:35;100623.88;;;20.92;53.84
13974;BME280;7060;43.770;4.008;2023-05-20T12:21:03;100617.66;;;20.85;54.54
13974;BME280;7060;43.770;4.008;2023-05-20T12:23:32;100619.75;;;20.83;55.11
13974;BME280;7060;43.770;4.008;2023-05-20T12:26:00;100621.88;;;20.75;55.99
13974;BME280;7060;43.770;4.008;2023-05-20T12:28:30;100623.56;;;20.62;55.15
13974;BME280;7060;43.770;4.008;2023-05-20T12:30:59;100632.81;;;20.55;56.12
13974;BME280;7060;43.770;4.008;2023-05-20T12:33:27;100630.13;;;20.48;57.40
13974;BME280;7060;43.770;4.008;2023-05-20T12:35:56;100632.63;;;20.43;55.95
13974;BME280;7060;43.770;4.008;2023-05-20T12:38:24;100637.44;;;20.41;56.49
13974;BME280;7060;43.770;4.008;2023-05-20T12:40:53;100645.59;;;20.41;55.84
13974;BME280;7060;43.770;4.008;2023-05-20T12:43:22;100638.69;;;20.45;55.52
13974;BME280;7060;43.770;4.008;2023-05-20T12:45:52;100641.81;;;20.49;56.66
13974;BME280;7060;43.770;4.008;2023-05-20T12:48:20;100646.19;;;20.50;57.12
13974;BME280;7060;43.770;4.008;2023-05-20T12:50:49;100644.09;;;20.52;57.18
13974;BME280;7060;43.770;4.008;2023-05-20T12:53:17;100649.13;;;20.55;56.69
13974;BME280;7060;43.770;4.008;2023-05-20T12:55:46;100649.75;;;20.57;57.43
13974;BME280;7060;43.770;4.008;2023-05-20T12:58:14;100640.53;;;20.58;56.35
13974;BME280;7060;43.770;4.008;2023-05-20T13:00:43;100651.00;;;20.54;55.15
13974;BME280;7060;43.770;4.008;2023-05-20T13:03:12;100650.16;;;20.47;54.54
13974;BME280;7060;43.770;4.008;2023-05-20T13:05:41;100654.97;;;20.45;54.62
13974;BME280;7060;43.770;4.008;2023-05-20T13:08:10;100654.34;;;20.50;56.19
13974;BME280;7060;43.770;4.008;2023-05-20T13:10:40;100649.31;;;20.53;56.38
13974;BME280;7060;43.770;4.008;2023-05-20T13:13:09;100654.53;;;20.55;55.96
13974;BME280;7060;43.770;4.008;2023-05-20T13:15:39;100658.09;;;20.49;56.08